Time;durP1;ratioP1;P1;durP2;ratioP2;P2;SDS_P1;SDS_P2;PMS_P1;PMS_P2;Temp;Humidity;BMP_temperature;BMP_pressure;BME280_temperature;BME280_humidity;BME280_pressure;Samples;Min_cycle;Max_cycle;Signal;HPM_P1;HPM_P2
2023/04/06 00:00:32;;;;;;;;;;;2.80;99.90;;;;;;5077293;28;19927;-56
2023/04/06 00:02:58;;;;;;;;;;;2.90;99.90;;;;;;5076737;28;19912;-57
2023/04/06 00:05:24;;;;;;;;;;;3.00;99.90;;;;;;5076688;28;19913;-57
2023/04/06 00:07:50;;;;;;;;;;;3.00;99.90;;;;;;5076209;28;19971;-57
2023/04/06 00:10:16;;;;;;;;;;;2.90;99.90;;;;;;5076773;28;19908;-57
2023/04/06 00:12:42;;;;;;;;;;;2.90;99.90;;;;;;5076688;28;19955;-57
2023/04/06 00:15:08;;;;;;;;;;;2.80;99.90;;;;;;5076937;28;19974;-57
2023/04/06 00:17:34;;;;;;;;;;;2.80;99.90;;;;;;5076671;28;20358;-57
2023/04/06 00:20:00;;;;;;;;;;;2.70;99.90;;;;;;5076653;28;19927;-57
2023/04/06 00:22:26;;;;;;;;;;;2.70;99.90;;;;;;5076584;28;19917;-57
2023/04/06 00:24:51;;;;;;;;;;;2.70;99.90;;;;;;5076672;28;19919;-57
2023/04/06 00:27:17;;;;;;;;;;;2.70;99.90;;;;;;5076674;28;19966;-56
2023/04/06 00:29:43;;;;;;;;;;;2.60;99.90;;;;;;5076607;28;19979;-56
2023/04/06 00:32:09;;;;;;;;;;;2.60;99.90;;;;;;5058392;28;19909;-57
2023/04/06 00:34:35;;;;;;;;;;;2.70;99.90;;;;;;5076441;28;19939;-57
2023/04/06 00:37:01;;;;;;;;;;;2.70;99.90;;;;;;5076356;28;19962;-57
2023/04/06 00:39:26;;;;;;;;;;;2.70;99.90;;;;;;5076356;28;19963;-57
2023/04/06 00:41:53;;;;;;;;;;;2.70;99.90;;;;;;5076596;28;20278;-57
2023/04/06 00:44:19;;;;;;;;;;;2.60;99.90;;;;;;5058378;28;19913;-57
2023/04/06 00:46:45;;;;;;;;;;;2.60;99.90;;;;;;5058311;28;19916;-57
2023/04/06 00:49:11;;;;;;;;;;;2.60;99.90;;;;;;5076569;28;20377;-57
2023/04/06 00:51:37;;;;;;;;;;;2.60;99.90;;;;;;5058276;28;19966;-57
2023/04/06 00:54:03;;;;;;;;;;;2.60;99.90;;;;;;5054628;28;20023;-57
2023/04/06 00:56:31;;;;;;;;;;;2.70;99.90;;;;;;5054899;28;19913;-57
2023/04/06 00:58:57;;;;;;;;;;;2.80;99.90;;;;;;5056018;28;19912;-57
2023/04/06 01:01:24;;;;;;;;;;;2.80;99.90;;;;;;5054661;28;19913;-57
2023/04/06 01:03:52;;;;;;;;;;;2.80;99.90;;;;;;5054913;28;20401;-57
2023/04/06 01:06:19;;;;;;;;;;;2.80;99.90;;;;;;5054360;28;19916;-57
2023/04/06 01:08:54;;;;;;;;;;;2.70;99.90;;;;;;5054308;28;20369;-57
2023/04/06 01:11:22;;;;;;;;;;;2.60;99.90;;;;;;5054617;28;19923;-57
2023/04/06 01:13:49;;;;;;;;;;;2.60;99.90;;;;;;5054418;28;20329;-57
2023/04/06 01:16:54;;;;;;;;;;;2.60;99.90;;;;;;5058877;28;19913;-57
2023/04/06 01:19:25;;;;;;;;;;;2.60;99.90;;;;;;5054222;28;19917;-57
2023/04/06 01:21:53;;;;;;;;;;;2.60;99.90;;;;;;5054389;28;19917;-57
2023/04/06 01:24:37;;;;;;;;;;;2.70;99.90;;;;;;5054321;28;19913;-57
2023/04/06 01:27:21;;;;;;;;;;;2.70;99.90;;;;;;5054370;28;19913;-57
2023/04/06 01:30:19;;;;;;;;;;;2.80;99.90;;;;;;5058332;28;19920;-57
2023/04/06 01:32:52;;;;;;;;;;;2.80;99.90;;;;;;5055375;28;19916;-57
2023/04/06 01:35:37;;;;;;;;;;;2.80;99.90;;;;;;5053910;28;19923;-57
2023/04/06 01:38:18;;;;;;;;;;;2.70;99.90;;;;;;5054102;28;19912;-57
2023/04/06 01:40:45;;;;;;;;;;;2.70;99.90;;;;;;5053907;28;19917;-56
2023/04/06 01:43:11;;;;;;;;;;;2.70;99.90;;;;;;5053934;28;20290;-57
2023/04/06 01:45:57;;;;;;;;;;;2.60;99.90;;;;;;5057410;28;19917;-56
2023/04/06 01:48:29;;;;;;;;;;;2.60;99.90;;;;;;5053942;28;20370;-57
2023/04/06 01:50:55;;;;;;;;;;;2.70;99.90;;;;;;5053716;28;19913;-57
2023/04/06 01:53:26;;;;;;;;;;;2.60;99.90;;;;;;5053542;28;20286;-57
2023/04/06 01:55:58;;;;;;;;;;;2.60;99.90;;;;;;5053793;28;19916;-57
2023/04/06 01:58:33;;;;;;;;;;;2.50;99.90;;;;;;5053712;28;19917;-56
2023/04/06 02:01:00;;;;;;;;;;;2.60;99.90;;;;;;5053731;28;19924;-57
2023/04/06 02:03:31;;;;;;;;;;;2.50;99.90;;;;;;5054043;28;19916;-56
2023/04/06 02:06:04;;;;;;;;;;;2.60;99.90;;;;;;5053462;28;20229;-57
2023/04/06 02:08:35;;;;;;;;;;;2.60;99.90;;;;;;5053946;28;19965;-57
2023/04/06 02:11:01;;;;;;;;;;;2.60;99.90;;;;;;5055625;28;20023;-57
2023/04/06 02:13:32;;;;;;;;;;;2.60;99.90;;;;;;5055673;28;19921;-56
2023/04/06 02:15:58;;;;;;;;;;;2.70;99.90;;;;;;5054217;28;19917;-57
2023/04/06 02:18:26;;;;;;;;;;;2.70;99.90;;;;;;5054177;28;19917;-56
2023/04/06 02:20:51;;;;;;;;;;;2.70;99.90;;;;;;5055489;28;19967;-57
2023/04/06 02:23:18;;;;;;;;;;;2.70;99.90;;;;;;5054641;28;19951;-57
2023/04/06 02:25:44;;;;;;;;;;;2.70;99.90;;;;;;5055608;28;19912;-57
2023/04/06 02:28:10;;;;;;;;;;;2.70;99.90;;;;;;5054177;28;19959;-57
2023/04/06 02:30:35;;;;;;;;;;;2.90;99.90;;;;;;5058336;28;19908;-57
2023/04/06 02:33:01;;;;;;;;;;;2.90;99.90;;;;;;5058137;28;19939;-57
2023/04/06 02:35:30;;;;;;;;;;;2.70;99.90;;;;;;5058219;28;19917;-57
2023/04/06 02:37:56;;;;;;;;;;;2.70;99.90;;;;;;5058122;28;19916;-57
2023/04/06 02:40:22;;;;;;;;;;;2.80;99.90;;;;;;5059348;28;20062;-57
2023/04/06 02:42:48;;;;;;;;;;;2.80;99.90;;;;;;5057969;28;20374;-57
2023/04/06 02:45:18;;;;;;;;;;;2.80;99.90;;;;;;5057876;28;19954;-57
2023/04/06 02:47:46;;;;;;;;;;;2.90;99.90;;;;;;5057943;28;19920;-57
2023/04/06 02:50:15;;;;;;;;;;;3.00;99.90;;;;;;5059195;28;19936;-57
2023/04/06 02:52:49;;;;;;;;;;;2.90;99.90;;;;;;5057936;28;20007;-57
2023/04/06 02:55:15;;;;;;;;;;;2.90;99.90;;;;;;5078821;28;19981;-57
2023/04/06 02:57:40;;;;;;;;;;;2.80;99.90;;;;;;5079154;28;19919;-57
2023/04/06 03:00:06;;;;;;;;;;;2.70;99.90;;;;;;5061049;28;19928;-57
2023/04/06 03:02:38;;;;;;;;;;;2.60;99.90;;;;;;5060956;28;20374;-57
2023/04/06 03:05:08;;;;;;;;;;;2.40;99.90;;;;;;5060895;28;20649;-57
2023/04/06 03:07:38;;;;;;;;;;;2.40;99.90;;;;;;5060854;28;19963;-57
2023/04/06 03:10:07;;;;;;;;;;;2.30;99.90;;;;;;5060707;28;19916;-57
2023/04/06 03:12:33;;;;;;;;;;;2.30;99.90;;;;;;5078901;28;19916;-56
2023/04/06 03:15:16;;;;;;;;;;;2.20;99.90;;;;;;5060813;28;19912;-57
2023/04/06 03:17:47;;;;;;;;;;;2.10;99.90;;;;;;5060708;28;20030;-57
2023/04/06 03:20:29;;;;;;;;;;;2.00;99.90;;;;;;5060611;28;19923;-57
2023/04/06 03:22:55;;;;;;;;;;;2.00;99.90;;;;;;5060604;28;19916;-57
2023/04/06 03:25:26;;;;;;;;;;;1.90;99.90;;;;;;5060681;28;19922;-57
2023/04/06 03:27:56;;;;;;;;;;;1.90;99.90;;;;;;5060425;28;19916;-57
2023/04/06 03:30:22;;;;;;;;;;;1.90;99.90;;;;;;5060640;28;19913;-57
2023/04/06 03:32:47;;;;;;;;;;;2.00;99.90;;;;;;5060433;28;20011;-57
2023/04/06 03:35:13;;;;;;;;;;;2.00;99.90;;;;;;5060305;28;19923;-57
2023/04/06 03:37:39;;;;;;;;;;;1.80;99.90;;;;;;5060292;28;19917;-56
2023/04/06 03:40:06;;;;;;;;;;;1.90;99.90;;;;;;5060312;28;19924;-57
2023/04/06 03:42:32;;;;;;;;;;;1.80;99.90;;;;;;5058896;28;19969;-56
2023/04/06 03:45:05;;;;;;;;;;;1.80;99.90;;;;;;5060163;28;19912;-57
2023/04/06 03:47:31;;;;;;;;;;;1.80;99.90;;;;;;5060269;28;20003;-57
2023/04/06 03:50:02;;;;;;;;;;;1.90;99.90;;;;;;5060094;28;19912;-57
2023/04/06 03:52:30;;;;;;;;;;;1.70;99.90;;;;;;5078006;28;19912;-56
2023/04/06 03:54:56;;;;;;;;;;;1.70;99.90;;;;;;5077847;28;19924;-57
2023/04/06 03:57:21;;;;;;;;;;;1.70;99.90;;;;;;5077972;28;20010;-57
2023/04/06 03:59:47;;;;;;;;;;;1.70;99.90;;;;;;5077880;28;19921;-56
2023/04/06 04:02:13;;;;;;;;;;;1.60;99.90;;;;;;5078009;28;19917;-57
2023/04/06 04:04:39;;;;;;;;;;;1.70;99.90;;;;;;5077766;28;19913;-57
2023/04/06 04:07:04;;;;;;;;;;;1.60;99.90;;;;;;5077829;28;19920;-57
2023/04/06 04:09:30;;;;;;;;;;;1.50;99.90;;;;;;5077692;28;20000;-57
2023/04/06 04:11:56;;;;;;;;;;;1.50;99.90;;;;;;5077757;28;19924;-57
2023/04/06 04:14:22;;;;;;;;;;;1.40;99.90;;;;;;5059608;28;20411;-56
2023/04/06 04:16:48;;;;;;;;;;;1.40;99.90;;;;;;5078000;28;19912;-56
2023/04/06 04:19:14;;;;;;;;;;;1.40;99.90;;;;;;5077517;28;19917;-57
2023/04/06 04:21:44;;;;;;;;;;;1.40;99.90;;;;;;5059461;28;20001;-57
2023/04/06 04:24:11;;;;;;;;;;;1.30;99.90;;;;;;5059285;28;19912;-57
2023/04/06 04:26:38;;;;;;;;;;;1.30;99.90;;;;;;5077535;28;19916;-57
2023/04/06 04:29:05;;;;;;;;;;;1.30;99.90;;;;;;5059369;28;20380;-56
2023/04/06 04:31:31;;;;;;;;;;;1.30;99.90;;;;;;5059207;28;19912;-56
2023/04/06 04:34:01;;;;;;;;;;;1.30;99.90;;;;;;5059186;28;19913;-57
2023/04/06 04:36:30;;;;;;;;;;;1.40;99.90;;;;;;5059179;28;20013;-57
2023/04/06 04:39:00;;;;;;;;;;;1.30;99.90;;;;;;5059193;28;19917;-56
2023/04/06 04:41:28;;;;;;;;;;;1.30;99.90;;;;;;5077065;28;20003;-56
2023/04/06 04:43:54;;;;;;;;;;;1.40;99.90;;;;;;5059056;28;19918;-57
2023/04/06 04:46:23;;;;;;;;;;;1.50;99.90;;;;;;5059042;28;19912;-57
2023/04/06 04:48:50;;;;;;;;;;;1.50;99.90;;;;;;5058961;28;19912;-57
2023/04/06 04:51:16;;;;;;;;;;;1.40;99.90;;;;;;5058887;28;20313;-56
2023/04/06 04:54:02;;;;;;;;;;;1.50;99.90;;;;;;5075703;28;19929;-57
2023/04/06 04:56:30;;;;;;;;;;;1.60;99.90;;;;;;5058735;28;19912;-57
2023/04/06 04:59:05;;;;;;;;;;;1.70;99.90;;;;;;5058846;28;19913;-57
2023/04/06 05:01:35;;;;;;;;;;;1.70;99.90;;;;;;5058855;28;19977;-56
2023/04/06 05:04:01;;;;;;;;;;;1.80;99.90;;;;;;5058588;28;19912;-57
2023/04/06 05:06:27;;;;;;;;;;;1.90;99.90;;;;;;5058521;28;20010;-57
2023/04/06 05:08:54;;;;;;;;;;;2.00;99.90;;;;;;5058485;28;19912;-57
2023/04/06 05:11:21;;;;;;;;;;;2.00;99.90;;;;;;5076434;28;20007;-57
2023/04/06 05:13:54;;;;;;;;;;;2.00;99.90;;;;;;5058206;28;19920;-57
2023/04/06 05:16:22;;;;;;;;;;;2.10;99.90;;;;;;5058311;28;19916;-57
2023/04/06 05:18:50;;;;;;;;;;;2.20;99.90;;;;;;5058379;28;19926;-57
2023/04/06 05:21:16;;;;;;;;;;;2.20;99.90;;;;;;5057923;28;19924;-56
2023/04/06 05:23:56;;;;;;;;;;;2.30;99.90;;;;;;5058190;28;20433;-57
2023/04/06 05:26:22;;;;;;;;;;;2.40;99.90;;;;;;5073898;28;19913;-57
2023/04/06 05:28:50;;;;;;;;;;;2.50;99.90;;;;;;5057486;28;19920;-57
2023/04/06 05:31:17;;;;;;;;;;;2.60;99.90;;;;;;5057184;28;19939;-57
2023/04/06 05:33:47;;;;;;;;;;;2.60;99.90;;;;;;5057116;28;19940;-57
2023/04/06 05:36:15;;;;;;;;;;;2.70;99.90;;;;;;5056244;28;19920;-57
2023/04/06 05:38:47;;;;;;;;;;;2.60;99.90;;;;;;5056954;28;19919;-57
2023/04/06 05:41:33;;;;;;;;;;;2.70;99.90;;;;;;5074398;28;20399;-57
2023/04/06 05:44:00;;;;;;;;;;;2.80;99.90;;;;;;5057005;28;19962;-57
2023/04/06 05:46:26;;;;;;;;;;;2.90;99.90;;;;;;5057029;28;19916;-57
2023/04/06 05:48:54;;;;;;;;;;;2.70;99.90;;;;;;5056908;28;19923;-57
2023/04/06 05:51:24;;;;;;;;;;;3.00;99.90;;;;;;5090571;28;20007;-57
2023/04/06 05:53:50;;;;;;;;;;;3.10;99.90;;;;;;5056617;28;19943;-57
2023/04/06 05:56:16;;;;;;;;;;;3.30;99.90;;;;;;5090500;28;19916;-57
2023/04/06 05:58:43;;;;;;;;;;;3.40;99.90;;;;;;5090218;28;19947;-57
2023/04/06 06:01:12;;;;;;;;;;;3.20;99.90;;;;;;5090179;28;19917;-57
2023/04/06 06:03:42;;;;;;;;;;;3.20;99.90;;;;;;5074242;28;19917;-57
2023/04/06 06:06:07;;;;;;;;;;;3.40;99.90;;;;;;5089618;28;19963;-57
2023/04/06 06:08:44;;;;;;;;;;;3.50;99.90;;;;;;5090056;28;19912;-57
2023/04/06 06:11:14;;;;;;;;;;;3.60;99.90;;;;;;5056699;28;20334;-57
2023/04/06 06:13:40;;;;;;;;;;;3.70;99.90;;;;;;5056421;28;19935;-57
2023/04/06 06:16:06;;;;;;;;;;;3.80;99.90;;;;;;5056453;28;19965;-57
2023/04/06 06:18:36;;;;;;;;;;;3.70;99.90;;;;;;5056585;28;20332;-57
2023/04/06 06:21:03;;;;;;;;;;;3.90;99.90;;;;;;5090073;28;19920;-57
2023/04/06 06:23:38;;;;;;;;;;;4.00;99.90;;;;;;5056627;28;19954;-57
2023/04/06 06:26:08;;;;;;;;;;;4.20;99.90;;;;;;5054645;28;19912;-57
2023/04/06 06:28:34;;;;;;;;;;;4.40;99.90;;;;;;5056378;28;19995;-57
2023/04/06 06:31:00;;;;;;;;;;;4.60;99.90;;;;;;5057226;28;20358;-57
2023/04/06 06:33:27;;;;;;;;;;;4.90;99.90;;;;;;5090743;28;20001;-57
2023/04/06 06:35:54;;;;;;;;;;;5.20;99.90;;;;;;5090724;28;20007;-57
2023/04/06 06:38:20;;;;;;;;;;;5.30;99.90;;;;;;5057286;28;19962;-58
2023/04/06 06:40:46;;;;;;;;;;;5.50;99.90;;;;;;5075121;28;19923;-58
2023/04/06 06:43:12;;;;;;;;;;;5.70;99.90;;;;;;5056962;28;19955;-57
2023/04/06 06:45:58;;;;;;;;;;;5.90;99.90;;;;;;5075275;28;19965;-57
2023/04/06 06:48:24;;;;;;;;;;;6.10;99.90;;;;;;5057145;28;20322;-58
2023/04/06 06:50:50;;;;;;;;;;;6.30;99.90;;;;;;5090704;28;20407;-57
2023/04/06 06:53:16;;;;;;;;;;;6.40;99.90;;;;;;5074717;28;19952;-57
2023/04/06 06:55:44;;;;;;;;;;;6.60;99.90;;;;;;5090718;28;20454;-57
2023/04/06 06:58:10;;;;;;;;;;;6.50;99.90;;;;;;5075066;28;19948;-57
2023/04/06 07:00:35;;;;;;;;;;;6.60;99.90;;;;;;5057127;28;19955;-57
2023/04/06 07:03:01;;;;;;;;;;;6.60;99.90;;;;;;5057081;28;19912;-57
2023/04/06 07:05:27;;;;;;;;;;;6.50;99.90;;;;;;5056803;28;19962;-57
2023/04/06 07:07:55;;;;;;;;;;;6.40;99.90;;;;;;5056986;28;19962;-57
2023/04/06 07:10:20;;;;;;;;;;;6.40;99.90;;;;;;5055344;28;19966;-58
2023/04/06 07:12:46;;;;;;;;;;;6.40;99.90;;;;;;5074509;28;19917;-57
2023/04/06 07:15:12;;;;;;;;;;;6.30;99.90;;;;;;5057274;28;19927;-58
2023/04/06 07:17:38;;;;;;;;;;;6.30;99.90;;;;;;5078924;28;19943;-57
2023/04/06 07:20:04;;;;;;;;;;;6.50;99.90;;;;;;5093637;28;19912;-58
2023/04/06 07:22:30;;;;;;;;;;;6.80;99.90;;;;;;5060487;28;19912;-57
2023/04/06 07:24:56;;;;;;;;;;;6.90;99.90;;;;;;5078476;28;19923;-58
2023/04/06 07:27:22;;;;;;;;;;;7.10;99.90;;;;;;5077699;28;20393;-57
2023/04/06 07:29:48;;;;;;;;;;;6.90;99.90;;;;;;5059743;28;19913;-58
2023/04/06 07:32:14;;;;;;;;;;;7.10;99.90;;;;;;5059890;28;19908;-58
2023/04/06 07:34:40;;;;;;;;;;;7.40;99.90;;;;;;5077961;28;19916;-58
2023/04/06 07:37:06;;;;;;;;;;;7.60;99.90;;;;;;5093903;28;20467;-57
2023/04/06 07:39:33;;;;;;;;;;;7.80;99.90;;;;;;5093525;28;20005;-58
2023/04/06 07:41:59;;;;;;;;;;;7.90;99.90;;;;;;5059307;28;19908;-58
2023/04/06 07:44:25;;;;;;;;;;;8.00;99.90;;;;;;5060066;28;19965;-57
2023/04/06 07:46:52;;;;;;;;;;;8.20;99.90;;;;;;5060126;28;19912;-58
2023/04/06 07:49:20;;;;;;;;;;;8.20;99.90;;;;;;5093429;28;20293;-58
2023/04/06 07:51:49;;;;;;;;;;;8.00;99.90;;;;;;5059851;28;19908;-58
2023/04/06 07:54:15;;;;;;;;;;;8.00;99.90;;;;;;5059670;28;19921;-58
2023/04/06 07:56:41;;;;;;;;;;;8.20;99.90;;;;;;5077669;28;20018;-58
2023/04/06 07:59:07;;;;;;;;;;;8.70;99.90;;;;;;5077667;28;19966;-58
2023/04/06 08:01:33;;;;;;;;;;;9.20;99.90;;;;;;5077363;28;19981;-58
2023/04/06 08:04:01;;;;;;;;;;;9.50;99.90;;;;;;5077332;28;19912;-58
2023/04/06 08:06:26;;;;;;;;;;;9.70;99.90;;;;;;5077759;28;19916;-58
2023/04/06 08:08:52;;;;;;;;;;;10.10;99.90;;;;;;5077631;28;19919;-58
2023/04/06 08:11:18;;;;;;;;;;;10.20;99.90;;;;;;5077121;28;19942;-58
2023/04/06 08:13:44;;;;;;;;;;;10.20;99.90;;;;;;5076888;28;20316;-58
2023/04/06 08:16:10;;;;;;;;;;;10.10;99.90;;;;;;5077005;28;20392;-58
2023/04/06 08:18:36;;;;;;;;;;;10.30;99.90;;;;;;5076539;28;19909;-58
2023/04/06 08:21:01;;;;;;;;;;;9.90;99.90;;;;;;5076708;28;20352;-58
2023/04/06 08:23:27;;;;;;;;;;;9.80;99.90;;;;;;5076456;28;20019;-58
2023/04/06 08:25:59;;;;;;;;;;;9.60;99.90;;;;;;5076301;28;19916;-58
2023/04/06 08:28:25;;;;;;;;;;;9.80;99.90;;;;;;5075814;28;19916;-58
2023/04/06 08:30:51;;;;;;;;;;;9.80;99.90;;;;;;5076485;28;19930;-58
2023/04/06 08:33:16;;;;;;;;;;;10.10;99.90;;;;;;5076297;28;19912;-58
2023/04/06 08:35:42;;;;;;;;;;;10.10;99.90;;;;;;5076532;28;19938;-58
2023/04/06 08:38:08;;;;;;;;;;;10.30;99.90;;;;;;5075687;28;19912;-58
2023/04/06 08:40:39;;;;;;;;;;;10.20;99.90;;;;;;5076187;28;19923;-58
2023/04/06 08:43:13;;;;;;;;;;;10.30;99.90;;;;;;5076193;28;19915;-58
2023/04/06 08:45:40;;;;;;;;;;;10.80;99.90;;;;;;5075712;28;19916;-58
2023/04/06 08:48:06;;;;;;;;;;;11.10;99.90;;;;;;5075990;28;19912;-58
2023/04/06 08:50:32;;;;;;;;;;;10.90;99.90;;;;;;5075735;28;19917;-58
2023/04/06 08:52:59;;;;;;;;;;;10.80;99.90;;;;;;5075334;28;20374;-58
2023/04/06 08:55:25;;;;;;;;;;;10.90;99.90;;;;;;5075410;28;19923;-58
2023/04/06 08:57:53;;;;;;;;;;;11.10;99.90;;;;;;5075343;28;19948;-58
2023/04/06 09:00:19;;;;;;;;;;;11.20;99.90;;;;;;5074655;28;19931;-58
2023/04/06 09:02:45;;;;;;;;;;;11.40;99.90;;;;;;5075639;28;19913;-58
2023/04/06 09:05:12;;;;;;;;;;;12.10;99.90;;;;;;5075304;28;19912;-58
2023/04/06 09:07:37;;;;;;;;;;;12.50;99.90;;;;;;5075234;28;19916;-58
2023/04/06 09:10:06;;;;;;;;;;;12.70;99.90;;;;;;5075270;28;19928;-58
2023/04/06 09:12:32;;;;;;;;;;;12.90;99.90;;;;;;5075360;28;19945;-58
2023/04/06 09:14:58;;;;;;;;;;;12.80;99.90;;;;;;5074948;28;19916;-58
2023/04/06 09:17:26;;;;;;;;;;;12.60;99.90;;;;;;5075404;28;19913;-58
2023/04/06 09:19:51;;;;;;;;;;;12.80;99.90;;;;;;5074163;28;20371;-58
2023/04/06 09:22:18;;;;;;;;;;;13.00;99.90;;;;;;5075285;28;20011;-58
2023/04/06 09:24:45;;;;;;;;;;;13.00;99.90;;;;;;5075213;28;20268;-58
2023/04/06 09:27:11;;;;;;;;;;;13.00;99.90;;;;;;5074654;28;20377;-58
2023/04/06 09:29:37;;;;;;;;;;;12.70;99.90;;;;;;5074498;28;19912;-58
2023/04/06 09:32:07;;;;;;;;;;;12.80;99.90;;;;;;5074358;28;19924;-59
2023/04/06 09:34:34;;;;;;;;;;;12.80;99.90;;;;;;5075840;28;20010;-58
2023/04/06 09:36:59;;;;;;;;;;;12.70;99.90;;;;;;5075753;28;20402;-58
2023/04/06 09:39:25;;;;;;;;;;;12.90;99.90;;;;;;5075754;28;19971;-58
2023/04/06 09:41:52;;;;;;;;;;;12.80;99.90;;;;;;5075555;28;19913;-58
2023/04/06 09:44:18;;;;;;;;;;;12.50;99.90;;;;;;5075550;28;19978;-58
2023/04/06 09:46:45;;;;;;;;;;;12.30;99.90;;;;;;5075615;28;20377;-58
2023/04/06 09:49:14;;;;;;;;;;;11.90;99.90;;;;;;5075229;28;19912;-58
2023/04/06 09:51:43;;;;;;;;;;;11.90;99.90;;;;;;5075388;28;19912;-58
2023/04/06 09:54:09;;;;;;;;;;;12.10;99.90;;;;;;5075173;28;19921;-58
2023/04/06 09:56:47;;;;;;;;;;;12.10;99.90;;;;;;5075426;28;19944;-58
2023/04/06 09:59:14;;;;;;;;;;;12.00;99.90;;;;;;5075368;28;19916;-58
2023/04/06 10:01:40;;;;;;;;;;;11.50;99.90;;;;;;5075260;28;19913;-58
2023/04/06 10:04:07;;;;;;;;;;;11.40;99.90;;;;;;5075284;28;20262;-58
2023/04/06 10:06:35;;;;;;;;;;;11.40;99.90;;;;;;5075207;28;19942;-58
2023/04/06 10:09:02;;;;;;;;;;;11.40;99.90;;;;;;5074161;28;19913;-58
2023/04/06 10:11:28;;;;;;;;;;;11.60;99.90;;;;;;5075285;28;19916;-58
2023/04/06 10:14:06;;;;;;;;;;;11.80;99.90;;;;;;5075065;28;20378;-58
2023/04/06 10:16:32;;;;;;;;;;;12.30;99.90;;;;;;5075315;28;19916;-58
2023/04/06 10:19:01;;;;;;;;;;;12.50;99.90;;;;;;5074728;28;19979;-59
2023/04/06 10:21:27;;;;;;;;;;;12.80;99.90;;;;;;5057074;28;20100;-58
2023/04/06 10:24:00;;;;;;;;;;;12.90;99.90;;;;;;5075152;28;19926;-58
2023/04/06 10:26:28;;;;;;;;;;;13.00;99.90;;;;;;5074596;28;20070;-58
2023/04/06 10:28:54;;;;;;;;;;;13.30;99.90;;;;;;5074978;28;19966;-58
2023/04/06 10:31:24;;;;;;;;;;;12.50;99.90;;;;;;5075051;28;19978;-58
2023/04/06 10:33:55;;;;;;;;;;;12.70;99.90;;;;;;5074865;28;19918;-58
2023/04/06 10:36:26;;;;;;;;;;;13.00;99.90;;;;;;5075202;28;19923;-58
2023/04/06 10:38:59;;;;;;;;;;;13.00;99.90;;;;;;5074796;28;19920;-58
2023/04/06 10:41:32;;;;;;;;;;;13.40;99.90;;;;;;5074307;28;19920;-58
2023/04/06 10:43:58;;;;;;;;;;;13.00;99.90;;;;;;5073001;28;19917;-58
2023/04/06 10:46:28;;;;;;;;;;;13.30;99.90;;;;;;5074914;28;19916;-58
2023/04/06 10:48:54;;;;;;;;;;;13.50;99.90;;;;;;5074895;28;19927;-58
2023/04/06 10:51:24;;;;;;;;;;;14.10;99.90;;;;;;5077286;28;20385;-58
2023/04/06 10:53:52;;;;;;;;;;;14.10;99.90;;;;;;5078549;28;19931;-58
2023/04/06 10:56:21;;;;;;;;;;;14.20;99.90;;;;;;5079190;28;19916;-58
2023/04/06 10:58:52;;;;;;;;;;;13.90;99.90;;;;;;5078982;28;19918;-58
2023/04/06 11:01:19;;;;;;;;;;;14.10;99.90;;;;;;5078763;28;19916;-58
2023/04/06 11:03:45;;;;;;;;;;;14.20;99.90;;;;;;5079091;28;19983;-58
2023/04/06 11:06:11;;;;;;;;;;;14.50;99.90;;;;;;5078595;28;20024;-58
2023/04/06 11:08:39;;;;;;;;;;;14.50;99.90;;;;;;5078418;28;19916;-58
2023/04/06 11:11:09;;;;;;;;;;;14.40;99.90;;;;;;5078460;28;20300;-58
2023/04/06 11:13:58;;;;;;;;;;;14.20;99.90;;;;;;5077933;28;20001;-58
2023/04/06 11:16:25;;;;;;;;;;;14.30;99.90;;;;;;5069719;28;20413;-58
2023/04/06 11:18:58;;;;;;;;;;;14.30;99.90;;;;;;5078084;28;20409;-58
2023/04/06 11:21:38;;;;;;;;;;;14.10;99.90;;;;;;5077632;28;20023;-58
2023/04/06 11:24:07;;;;;;;;;;;13.80;99.90;;;;;;5075486;28;19966;-58
2023/04/06 11:26:36;;;;;;;;;;;13.70;99.90;;;;;;5076890;28;19923;-58
2023/04/06 11:29:02;;;;;;;;;;;14.20;99.90;;;;;;5077425;28;19913;-58
2023/04/06 11:31:28;;;;;;;;;;;14.30;99.90;;;;;;5077529;28;19913;-58
2023/04/06 11:33:57;;;;;;;;;;;14.50;99.90;;;;;;5077197;28;20263;-58
2023/04/06 11:36:23;;;;;;;;;;;13.90;99.90;;;;;;5076611;28;19917;-58
2023/04/06 11:38:52;;;;;;;;;;;13.70;99.90;;;;;;5076984;28;20430;-58
2023/04/06 11:41:18;;;;;;;;;;;13.70;99.90;;;;;;5076732;28;20050;-58
2023/04/06 11:43:49;;;;;;;;;;;14.00;99.90;;;;;;5077290;28;19955;-58
2023/04/06 11:46:17;;;;;;;;;;;14.20;99.90;;;;;;5077265;28;19919;-58
2023/04/06 11:48:46;;;;;;;;;;;14.10;99.90;;;;;;5076729;28;19916;-58
2023/04/06 11:51:12;;;;;;;;;;;13.80;99.90;;;;;;5076481;28;19916;-58
2023/04/06 11:53:45;;;;;;;;;;;13.70;99.90;;;;;;5076915;28;20447;-58
2023/04/06 11:56:11;;;;;;;;;;;13.80;99.90;;;;;;5056650;28;19956;-58
2023/04/06 11:58:37;;;;;;;;;;;13.90;99.90;;;;;;5057155;28;19939;-58
2023/04/06 12:01:03;;;;;;;;;;;13.70;99.90;;;;;;5057025;28;19939;-58
2023/04/06 12:03:29;;;;;;;;;;;13.30;99.90;;;;;;5055730;28;19917;-58
2023/04/06 12:05:55;;;;;;;;;;;13.40;99.90;;;;;;5070415;28;19920;-58
2023/04/06 12:08:25;;;;;;;;;;;13.70;99.90;;;;;;5076539;28;20327;-58
2023/04/06 12:10:50;;;;;;;;;;;14.00;99.90;;;;;;5075656;28;19972;-58
2023/04/06 12:13:16;;;;;;;;;;;12.90;99.90;;;;;;5075822;28;19944;-58
2023/04/06 12:15:42;;;;;;;;;;;13.20;99.90;;;;;;5076697;28;19930;-58
2023/04/06 12:18:08;;;;;;;;;;;13.30;99.90;;;;;;5076072;28;19912;-58
2023/04/06 12:20:34;;;;;;;;;;;13.00;99.90;;;;;;5075336;28;20003;-58
2023/04/06 12:23:00;;;;;;;;;;;12.90;99.90;;;;;;5075293;28;19913;-58
2023/04/06 12:25:26;;;;;;;;;;;13.30;99.90;;;;;;5075169;28;19923;-58
2023/04/06 12:27:52;;;;;;;;;;;13.70;99.90;;;;;;5075509;28;19920;-58
2023/04/06 12:30:18;;;;;;;;;;;13.40;99.90;;;;;;5075603;28;19923;-58
2023/04/06 12:32:43;;;;;;;;;;;13.70;99.90;;;;;;5076670;28;20404;-58
2023/04/06 12:35:11;;;;;;;;;;;14.00;99.90;;;;;;5076803;28;19920;-58
2023/04/06 12:37:37;;;;;;;;;;;14.40;99.90;;;;;;5076560;28;20286;-58
2023/04/06 12:40:04;;;;;;;;;;;14.50;99.90;;;;;;5077009;28;19927;-58
2023/04/06 12:42:30;;;;;;;;;;;14.10;99.90;;;;;;5076905;28;19920;-58
2023/04/06 12:44:56;;;;;;;;;;;14.00;99.90;;;;;;5076966;28;19987;-58
2023/04/06 12:47:22;;;;;;;;;;;14.00;99.90;;;;;;5076798;28;19940;-58
2023/04/06 12:49:48;;;;;;;;;;;14.20;99.90;;;;;;5076643;28;20301;-58
2023/04/06 12:52:14;;;;;;;;;;;13.90;99.90;;;;;;5076902;28;19923;-58
2023/04/06 12:54:41;;;;;;;;;;;13.90;99.90;;;;;;5076695;28;19927;-58
2023/04/06 12:57:07;;;;;;;;;;;13.90;99.90;;;;;;5076915;28;20031;-58
2023/04/06 12:59:35;;;;;;;;;;;13.40;99.90;;;;;;5076414;28;20401;-58
2023/04/06 13:02:00;;;;;;;;;;;13.60;99.90;;;;;;5076391;28;19931;-58
2023/04/06 13:04:26;;;;;;;;;;;13.90;99.90;;;;;;5076580;28;19916;-58
2023/04/06 13:06:52;;;;;;;;;;;13.90;99.90;;;;;;5076316;28;19923;-58
2023/04/06 13:09:18;;;;;;;;;;;14.50;99.90;;;;;;5075963;28;19928;-58
2023/04/06 13:11:44;;;;;;;;;;;14.60;99.90;;;;;;5076227;28;19923;-58
2023/04/06 13:14:10;;;;;;;;;;;14.60;99.90;;;;;;5075972;28;19909;-58
2023/04/06 13:16:36;;;;;;;;;;;14.60;99.90;;;;;;5075451;28;19974;-58
2023/04/06 13:19:02;;;;;;;;;;;15.00;99.90;;;;;;5075600;28;19934;-58
2023/04/06 13:21:28;;;;;;;;;;;15.20;99.90;;;;;;5074413;28;19927;-58
2023/04/06 13:23:54;;;;;;;;;;;15.10;99.90;;;;;;5075234;28;19916;-58
2023/04/06 13:26:19;;;;;;;;;;;15.40;99.90;;;;;;5075643;28;20317;-58
2023/04/06 13:28:45;;;;;;;;;;;15.10;99.90;;;;;;5075403;28;19916;-58
2023/04/06 13:31:11;;;;;;;;;;;15.20;99.90;;;;;;5075109;28;19912;-58
2023/04/06 13:33:38;;;;;;;;;;;15.30;99.90;;;;;;5075494;28;19973;-58
2023/04/06 13:36:04;;;;;;;;;;;14.90;99.90;;;;;;5075375;28;19916;-58
2023/04/06 13:38:30;;;;;;;;;;;15.10;99.90;;;;;;5075112;28;19921;-58
2023/04/06 13:40:56;;;;;;;;;;;15.20;99.90;;;;;;5075104;28;19921;-58
2023/04/06 13:43:22;;;;;;;;;;;15.40;99.90;;;;;;5075121;28;19909;-58
2023/04/06 13:45:51;;;;;;;;;;;15.50;99.90;;;;;;5075170;28;20237;-58
2023/04/06 13:48:17;;;;;;;;;;;15.40;99.90;;;;;;5075402;28;19917;-58
2023/04/06 13:50:44;;;;;;;;;;;14.40;99.90;;;;;;5074823;28;19940;-58
2023/04/06 13:53:10;;;;;;;;;;;14.60;99.90;;;;;;5074883;28;19917;-58
2023/04/06 13:55:35;;;;;;;;;;;14.70;99.90;;;;;;5090675;28;19934;-58
2023/04/06 13:58:01;;;;;;;;;;;14.60;99.90;;;;;;5075227;28;20369;-58
2023/04/06 14:00:27;;;;;;;;;;;14.90;99.90;;;;;;5074888;28;19966;-58
2023/04/06 14:02:54;;;;;;;;;;;14.50;99.90;;;;;;5075130;28;19913;-58
2023/04/06 14:05:20;;;;;;;;;;;14.60;99.90;;;;;;5074659;28;19916;-58
2023/04/06 14:07:46;;;;;;;;;;;14.50;99.90;;;;;;5074877;28;20006;-58
2023/04/06 14:10:14;;;;;;;;;;;14.50;99.90;;;;;;5074854;28;19912;-58
2023/04/06 14:12:41;;;;;;;;;;;14.50;99.90;;;;;;5074773;28;19912;-58
2023/04/06 14:15:07;;;;;;;;;;;14.90;99.90;;;;;;5074619;28;19938;-58
2023/04/06 14:17:33;;;;;;;;;;;14.90;99.90;;;;;;5074870;28;19916;-58
2023/04/06 14:19:59;;;;;;;;;;;15.00;99.90;;;;;;5074875;28;19925;-58
2023/04/06 14:22:25;;;;;;;;;;;14.80;99.90;;;;;;5074714;28;19958;-58
2023/04/06 14:24:51;;;;;;;;;;;14.20;99.90;;;;;;5074223;28;19913;-58
2023/04/06 14:27:17;;;;;;;;;;;13.80;99.90;;;;;;5074787;28;20290;-58